createdAt,value
2018-05-21T00:02:16.667Z,13.10
2018-05-21T00:04:44.771Z,13.00
2018-05-21T00:07:12.837Z,13.00
2018-05-21T00:09:41.301Z,12.80
2018-05-21T00:12:09.058Z,12.90
2018-05-21T00:14:36.848Z,12.80
2018-05-21T00:17:04.824Z,12.80
2018-05-21T00:19:33.186Z,12.80
2018-05-21T00:22:01.452Z,12.80
2018-05-21T00:24:30.167Z,12.80
2018-05-21T00:26:58.226Z,12.80
2018-05-21T00:29:26.636Z,12.80
2018-05-21T00:31:55.991Z,12.70
2018-05-21T00:34:24.029Z,12.70
2018-05-21T00:36:51.932Z,12.70
2018-05-21T00:39:20.016Z,12.70
2018-05-21T00:41:48.282Z,12.70
2018-05-21T00:44:16.577Z,12.70
2018-05-21T00:46:44.530Z,12.60
2018-05-21T00:49:12.390Z,12.60
2018-05-21T00:51:40.463Z,12.50
2018-05-21T00:54:08.637Z,12.50
2018-05-21T00:56:36.389Z,12.50
2018-05-21T00:59:04.047Z,12.50
2018-05-21T01:01:32.149Z,12.50
2018-05-21T01:04:00.101Z,12.40
2018-05-21T01:06:28.160Z,12.40
2018-05-21T01:08:56.346Z,12.40
2018-05-21T01:11:24.509Z,12.40
2018-05-21T01:13:52.787Z,12.40
2018-05-21T01:16:20.548Z,12.30
2018-05-21T01:18:49.234Z,12.20
2018-05-21T01:21:17.108Z,12.20
2018-05-21T01:23:45.591Z,12.20
2018-05-21T01:26:13.767Z,12.20
2018-05-21T01:28:42.130Z,12.10
2018-05-21T01:31:10.018Z,12.10
2018-05-21T01:33:38.070Z,12.00
2018-05-21T01:36:06.448Z,12.00
2018-05-21T01:38:34.307Z,12.00
2018-05-21T01:41:02.301Z,12.00
2018-05-21T01:43:30.474Z,12.00
2018-05-21T01:45:58.434Z,12.00
2018-05-21T01:48:26.495Z,11.90
2018-05-21T01:50:54.359Z,11.80
2018-05-21T01:53:22.534Z,11.80
2018-05-21T01:55:50.493Z,11.80
2018-05-21T01:58:18.282Z,11.80
2018-05-21T02:00:46.455Z,11.80
2018-05-21T02:03:15.100Z,11.70
2018-05-21T02:05:43.299Z,11.80
2018-05-21T02:08:11.055Z,11.80
2018-05-21T02:10:39.428Z,11.70
2018-05-21T02:13:07.517Z,11.70
2018-05-21T02:15:35.586Z,11.60
2018-05-21T02:18:03.449Z,11.60
2018-05-21T02:20:31.920Z,11.60
2018-05-21T02:23:00.109Z,11.60
2018-05-21T02:25:27.858Z,11.50
2018-05-21T02:27:56.041Z,11.50
2018-05-21T02:30:23.910Z,11.50
2018-05-21T02:32:51.682Z,11.50
2018-05-21T02:35:19.840Z,11.50
2018-05-21T02:37:47.821Z,11.50
2018-05-21T02:40:15.781Z,11.50
2018-05-21T02:42:43.576Z,11.40
2018-05-21T02:45:12.837Z,11.40
2018-05-21T02:47:40.827Z,11.40
2018-05-21T02:50:08.673Z,11.40
2018-05-21T02:52:36.538Z,11.40
2018-05-21T02:55:04.421Z,11.40
2018-05-21T02:57:33.821Z,11.30
2018-05-21T03:00:01.977Z,11.30
2018-05-21T03:02:29.962Z,11.30
2018-05-21T03:04:57.817Z,11.30
2018-05-21T03:07:25.807Z,11.30
2018-05-21T03:09:53.841Z,11.30
2018-05-21T03:12:22.032Z,11.30
2018-05-21T03:14:50.000Z,11.30
2018-05-21T03:17:18.061Z,11.30
2018-05-21T03:19:46.726Z,11.30
2018-05-21T03:22:14.937Z,11.20
2018-05-21T03:24:43.116Z,11.30
2018-05-21T03:27:10.877Z,11.30
2018-05-21T03:29:38.749Z,11.30
2018-05-21T03:32:06.592Z,11.40
2018-05-21T03:34:34.877Z,11.50
2018-05-21T03:37:03.094Z,11.50
2018-05-21T03:39:31.717Z,11.50
2018-05-21T03:41:59.709Z,11.50
2018-05-21T03:44:27.718Z,11.50
2018-05-21T03:46:55.557Z,11.60
2018-05-21T03:49:24.134Z,11.70
2018-05-21T03:51:52.429Z,11.70
2018-05-21T03:54:21.872Z,11.80
2018-05-21T03:56:49.869Z,11.80
2018-05-21T03:59:29.517Z,11.80
2018-05-21T04:02:11.318Z,11.90
2018-05-21T04:04:40.613Z,11.90
2018-05-21T04:07:08.966Z,12.00
2018-05-21T04:09:37.157Z,12.00
2018-05-21T04:12:05.437Z,12.00
2018-05-21T04:14:33.871Z,12.10
2018-05-21T04:17:02.187Z,12.10
2018-05-21T04:19:30.288Z,12.10
2018-05-21T04:21:59.468Z,12.20
2018-05-21T04:24:27.667Z,12.20
2018-05-21T04:26:56.771Z,12.50
2018-05-21T04:29:26.152Z,12.50
2018-05-21T04:31:55.207Z,12.50
2018-05-21T04:34:23.291Z,12.50
2018-05-21T04:36:51.152Z,12.70
2018-05-21T04:39:19.479Z,12.70
2018-05-21T04:41:48.311Z,12.90
2018-05-21T04:44:16.689Z,12.80
2018-05-21T04:46:44.865Z,12.90
2018-05-21T04:49:13.243Z,13.00
2018-05-21T04:51:41.210Z,13.00
2018-05-21T04:54:09.289Z,13.10
2018-05-21T04:56:37.157Z,13.20
2018-05-21T04:59:05.384Z,13.30
2018-05-21T05:01:34.240Z,13.30
2018-05-21T05:04:02.891Z,13.30
2018-05-21T05:06:31.531Z,13.30
2018-05-21T05:09:00.294Z,13.60
2018-05-21T05:11:28.717Z,13.60
2018-05-21T05:13:56.937Z,13.70
2018-05-21T05:16:24.986Z,13.70
2018-05-21T05:18:53.287Z,13.80
2018-05-21T05:21:21.732Z,13.90
2018-05-21T05:23:49.778Z,14.00
2018-05-21T05:26:18.228Z,14.10
2018-05-21T05:28:46.328Z,14.20
2018-05-21T05:31:14.564Z,14.30
2018-05-21T05:33:43.197Z,14.40
2018-05-21T05:36:11.733Z,14.50
2018-05-21T05:38:40.256Z,14.60
2018-05-21T05:41:08.784Z,14.70
2018-05-21T05:43:36.860Z,14.90
2018-05-21T05:46:05.562Z,15.20
2018-05-21T05:48:34.878Z,15.30
2018-05-21T05:51:04.754Z,15.40
2018-05-21T05:53:32.946Z,15.40
2018-05-21T05:56:01.155Z,15.40
2018-05-21T05:58:29.476Z,15.40
2018-05-21T06:00:57.675Z,15.50
2018-05-21T06:03:25.752Z,15.70
2018-05-21T06:05:54.857Z,16.00
2018-05-21T06:08:23.952Z,16.00
2018-05-21T06:10:52.800Z,16.10
2018-05-21T06:13:21.696Z,16.10
2018-05-21T06:15:49.668Z,16.20
2018-05-21T06:18:17.786Z,16.20
2018-05-21T06:20:46.227Z,16.30
2018-05-21T06:23:14.507Z,16.30
2018-05-21T06:25:42.574Z,16.60
2018-05-21T06:28:10.541Z,16.60
2018-05-21T06:30:38.863Z,16.80
2018-05-21T06:33:06.983Z,16.90
2018-05-21T06:35:35.034Z,17.10
2018-05-21T06:38:03.381Z,17.40
2018-05-21T06:40:31.806Z,17.70
2018-05-21T06:43:00.514Z,18.20
2018-05-21T06:45:29.434Z,19.50
2018-05-21T06:47:57.759Z,19.50
2018-05-21T06:50:26.162Z,20.00
2018-05-21T06:52:55.517Z,21.00
2018-05-21T06:55:24.034Z,20.90
2018-05-21T06:57:52.352Z,21.20
2018-05-21T07:00:20.263Z,21.60
2018-05-21T07:02:48.693Z,22.00
2018-05-21T07:05:16.918Z,22.40
2018-05-21T07:07:45.188Z,23.20
2018-05-21T07:10:13.867Z,23.70
2018-05-21T07:12:42.093Z,24.10
2018-05-21T07:15:10.941Z,24.90
2018-05-21T07:17:39.505Z,24.80
2018-05-21T07:20:07.616Z,25.20
2018-05-21T07:22:35.588Z,26.20
2018-05-21T07:25:04.908Z,27.60
2018-05-21T07:27:33.149Z,27.50
2018-05-21T07:30:01.223Z,27.40
2018-05-21T07:32:29.383Z,28.00
2018-05-21T07:34:57.711Z,28.30
2018-05-21T07:37:26.254Z,28.80
2018-05-21T07:39:54.471Z,28.60
2018-05-21T07:42:22.886Z,28.90
2018-05-21T07:44:51.398Z,29.00
2018-05-21T07:47:19.657Z,29.00
2018-05-21T07:49:48.007Z,28.90
2018-05-21T07:52:15.993Z,28.90
2018-05-21T07:54:45.125Z,29.40
2018-05-21T07:57:14.237Z,29.90
2018-05-21T07:59:42.975Z,29.90
2018-05-21T08:02:11.158Z,30.00
2018-05-21T08:04:39.224Z,30.20
2018-05-21T08:07:07.401Z,29.60
2018-05-21T08:09:35.604Z,29.70
2018-05-21T08:12:04.799Z,30.80
2018-05-21T08:14:33.953Z,31.90
2018-05-21T08:17:02.228Z,31.90
2018-05-21T08:19:30.363Z,32.50
2018-05-21T08:21:58.773Z,31.50
2018-05-21T08:24:26.875Z,31.60
2018-05-21T08:26:55.222Z,32.60
2018-05-21T08:29:23.885Z,33.10
2018-05-21T08:31:52.125Z,33.10
2018-05-21T08:34:21.305Z,33.10
2018-05-21T08:36:50.129Z,33.00
2018-05-21T08:39:18.724Z,32.70
2018-05-21T08:41:47.327Z,33.20
2018-05-21T08:44:15.323Z,32.90
2018-05-21T08:46:43.847Z,32.90
2018-05-21T08:49:12.076Z,33.40
2018-05-21T08:51:40.027Z,33.90
2018-05-21T08:54:08.472Z,34.00
2018-05-21T08:56:36.784Z,34.40
2018-05-21T08:59:04.952Z,34.30
2018-05-21T09:01:32.955Z,33.90
2018-05-21T09:04:01.109Z,34.20
2018-05-21T09:06:29.305Z,35.00
2018-05-21T09:08:57.425Z,35.70
2018-05-21T09:11:25.753Z,35.60
2018-05-21T09:13:53.826Z,35.50
2018-05-21T09:16:22.193Z,35.30
2018-05-21T09:18:51.541Z,35.00
2018-05-21T09:21:19.663Z,35.00
2018-05-21T09:23:47.831Z,35.40
2018-05-21T09:26:16.014Z,35.10
2018-05-21T09:28:44.332Z,34.90
2018-05-21T09:31:14.008Z,35.40
2018-05-21T09:33:42.976Z,36.60
2018-05-21T09:36:11.166Z,36.60
2018-05-21T09:38:39.515Z,37.40
2018-05-21T09:41:07.723Z,37.10
2018-05-21T09:43:37.054Z,38.10
2018-05-21T09:46:05.630Z,38.00
2018-05-21T09:48:34.417Z,37.50
2018-05-21T09:51:02.638Z,37.50
2018-05-21T09:53:30.735Z,37.00
2018-05-21T09:55:58.989Z,36.90
2018-05-21T09:58:27.282Z,36.90
2018-05-21T10:00:55.596Z,36.70
2018-05-21T10:03:24.791Z,37.10
2018-05-21T10:05:53.236Z,37.10
2018-05-21T10:08:21.552Z,36.70
2018-05-21T10:10:49.595Z,36.50
2018-05-21T10:13:18.403Z,36.20
2018-05-21T10:15:47.142Z,36.90
2018-05-21T10:18:15.224Z,36.90
2018-05-21T10:20:43.348Z,37.60
2018-05-21T10:23:11.425Z,37.90
2018-05-21T10:25:39.845Z,38.20
2018-05-21T10:28:08.023Z,38.20
2018-05-21T10:30:35.887Z,37.70
2018-05-21T10:33:04.224Z,38.00
2018-05-21T10:35:32.442Z,39.30
2018-05-21T10:38:01.560Z,38.20
2018-05-21T10:40:30.628Z,38.00
2018-05-21T10:42:59.573Z,38.00
2018-05-21T10:45:27.887Z,37.60
2018-05-21T10:47:55.752Z,38.10
2018-05-21T10:50:24.096Z,38.30
2018-05-21T10:52:52.413Z,38.20
2018-05-21T10:55:21.100Z,38.70
2018-05-21T10:57:49.603Z,39.40
2018-05-21T11:00:18.133Z,39.70
2018-05-21T11:02:46.139Z,38.80
2018-05-21T11:05:14.297Z,37.90
2018-05-21T11:07:42.405Z,37.00
2018-05-21T11:10:11.347Z,37.30
2018-05-21T11:12:39.664Z,37.40
2018-05-21T11:15:07.745Z,38.10
2018-05-21T11:17:36.717Z,38.50
2018-05-21T11:20:05.043Z,38.50
2018-05-21T11:22:33.714Z,38.70
2018-05-21T11:25:02.588Z,38.20
2018-05-21T11:27:31.665Z,38.00
2018-05-21T11:29:59.887Z,38.00
2018-05-21T11:32:28.145Z,37.70
2018-05-21T11:34:56.475Z,38.10
2018-05-21T11:37:24.713Z,38.30
2018-05-21T11:39:53.259Z,38.50
2018-05-21T11:42:21.625Z,38.40
2018-05-21T11:44:49.704Z,36.60
2018-05-21T11:47:18.013Z,34.80
2018-05-21T11:49:47.011Z,34.90
2018-05-21T11:52:15.126Z,35.90
2018-05-21T11:54:43.299Z,37.00
2018-05-21T11:57:11.280Z,37.70
2018-05-21T11:59:39.644Z,37.40
2018-05-21T12:02:07.996Z,37.50
2018-05-21T12:04:36.207Z,36.60
2018-05-21T12:07:04.546Z,37.00
2018-05-21T12:09:32.715Z,37.60
2018-05-21T12:12:01.136Z,37.90
2018-05-21T12:14:29.681Z,38.30
2018-05-21T12:16:58.198Z,37.50
2018-05-21T12:19:26.649Z,36.30
2018-05-21T12:21:55.171Z,35.30
2018-05-21T12:24:23.382Z,35.30
2018-05-21T12:26:51.604Z,36.10
2018-05-21T12:29:19.706Z,36.30
2018-05-21T12:31:48.788Z,35.40
2018-05-21T12:34:16.842Z,35.40
2018-05-21T12:36:44.827Z,36.00
2018-05-21T12:39:13.293Z,36.40
2018-05-21T12:41:41.515Z,37.30
2018-05-21T12:44:10.169Z,37.20
2018-05-21T12:46:38.126Z,36.70
2018-05-21T12:49:06.512Z,35.30
2018-05-21T12:51:34.573Z,35.10
2018-05-21T12:54:02.762Z,35.00
2018-05-21T12:56:32.465Z,34.40
2018-05-21T12:59:00.954Z,34.40
2018-05-21T13:01:29.408Z,34.30
2018-05-21T13:03:57.488Z,34.20
2018-05-21T13:06:25.701Z,35.50
2018-05-21T13:08:54.356Z,37.00
2018-05-21T13:11:22.453Z,37.00
2018-05-21T13:13:51.779Z,35.60
2018-05-21T13:16:20.387Z,35.60
2018-05-21T13:18:48.715Z,35.20
2018-05-21T13:21:17.463Z,35.60
2018-05-21T13:23:47.801Z,35.50
2018-05-21T13:26:16.370Z,35.90
2018-05-21T13:28:44.768Z,35.60
2018-05-21T13:31:12.554Z,35.40
2018-05-21T13:33:41.509Z,36.80
2018-05-21T13:36:09.394Z,36.80
2018-05-21T13:38:38.536Z,36.30
2018-05-21T13:41:07.254Z,36.30
2018-05-21T13:43:35.294Z,36.20
2018-05-21T13:46:03.502Z,36.20
2018-05-21T13:48:32.088Z,36.10
2018-05-21T13:51:00.221Z,36.20
2018-05-21T13:53:28.646Z,36.20
2018-05-21T13:55:56.874Z,36.00
2018-05-21T13:58:25.393Z,35.40
2018-05-21T14:00:53.526Z,34.90
2018-05-21T14:03:21.669Z,34.80
2018-05-21T14:05:50.767Z,34.00
2018-05-21T14:08:19.628Z,33.70
2018-05-21T14:10:47.691Z,33.70
2018-05-21T14:13:15.863Z,33.40
2018-05-21T14:15:44.213Z,33.60
2018-05-21T14:18:12.438Z,33.60
2018-05-21T14:20:41.477Z,32.80
2018-05-21T14:23:09.576Z,32.80
2018-05-21T14:25:38.032Z,32.90
2018-05-21T14:28:07.127Z,33.50
2018-05-21T14:30:35.955Z,33.10
2018-05-21T14:33:03.838Z,31.80
2018-05-21T14:35:32.893Z,31.30
2018-05-21T14:38:01.021Z,31.90
2018-05-21T14:40:29.527Z,32.20
2018-05-21T14:42:58.153Z,31.80
2018-05-21T14:45:26.310Z,32.20
2018-05-21T14:47:54.848Z,32.50
2018-05-21T14:50:22.862Z,32.70
2018-05-21T14:52:52.074Z,32.30
2018-05-21T14:55:20.076Z,32.30
2018-05-21T14:57:48.925Z,31.60
2018-05-21T15:00:17.041Z,31.60
2018-05-21T15:02:46.046Z,30.80
2018-05-21T15:05:14.250Z,30.80
2018-05-21T15:07:42.129Z,30.60
2018-05-21T15:10:10.409Z,30.10
2018-05-21T15:12:38.440Z,29.60
2018-05-21T15:15:06.960Z,28.90
2018-05-21T15:17:35.147Z,28.40
2018-05-21T15:20:03.503Z,27.60
2018-05-21T15:22:31.686Z,27.00
2018-05-21T15:24:59.858Z,27.00
2018-05-21T15:27:28.183Z,27.00
2018-05-21T15:29:57.430Z,27.00
2018-05-21T15:32:25.927Z,27.00
2018-05-21T15:34:54.283Z,27.00
2018-05-21T15:37:23.082Z,26.70
2018-05-21T15:39:51.407Z,26.30
2018-05-21T15:42:19.634Z,25.90
2018-05-21T15:44:47.744Z,25.70
2018-05-21T15:47:16.811Z,25.40
2018-05-21T15:49:45.228Z,25.40
2018-05-21T15:52:13.764Z,25.30
2018-05-21T15:54:41.991Z,25.10
2018-05-21T15:57:10.425Z,25.10
2018-05-21T15:59:38.533Z,24.90
2018-05-21T16:02:07.961Z,24.70
2018-05-21T16:04:35.952Z,24.70
2018-05-21T16:07:04.131Z,24.50
2018-05-21T16:09:32.568Z,24.50
2018-05-21T16:12:01.122Z,24.40
2018-05-21T16:14:30.411Z,24.10
2018-05-21T16:16:58.520Z,24.10
2018-05-21T16:19:26.641Z,24.20
2018-05-21T16:21:54.728Z,23.90
2018-05-21T16:24:22.746Z,24.00
2018-05-21T16:26:51.462Z,24.00
2018-05-21T16:29:19.540Z,24.00
2018-05-21T16:31:47.727Z,24.00
2018-05-21T16:34:15.902Z,24.00
2018-05-21T16:36:44.306Z,23.90
2018-05-21T16:39:13.647Z,23.60
2018-05-21T16:41:41.627Z,23.60
2018-05-21T16:44:10.149Z,23.40
2018-05-21T16:46:39.013Z,23.00
2018-05-21T16:49:07.529Z,23.00
2018-05-21T16:51:35.942Z,23.00
2018-05-21T16:54:04.652Z,22.90
2018-05-21T16:56:33.235Z,22.90
2018-05-21T16:59:01.620Z,23.00
2018-05-21T17:01:29.842Z,22.90
2018-05-21T17:03:57.964Z,22.70
2018-05-21T17:06:27.258Z,22.60
2018-05-21T17:08:55.258Z,22.60
2018-05-21T17:11:24.461Z,22.60
2018-05-21T17:13:53.581Z,22.50
2018-05-21T17:16:22.528Z,22.50
2018-05-21T17:18:50.592Z,22.50
2018-05-21T17:21:18.456Z,22.50
2018-05-21T17:23:46.430Z,22.40
2018-05-21T17:26:15.707Z,22.40
2018-05-21T17:28:44.090Z,22.30
2018-05-21T17:31:12.581Z,22.10
2018-05-21T17:33:41.210Z,21.70
2018-05-21T17:36:09.135Z,21.70
2018-05-21T17:38:37.314Z,21.70
2018-05-21T17:41:05.474Z,21.60
2018-05-21T17:43:33.962Z,21.60
2018-05-21T17:46:01.817Z,21.60
2018-05-21T17:48:30.304Z,21.40
2018-05-21T17:50:59.052Z,21.40
2018-05-21T17:53:27.680Z,21.40
2018-05-21T17:55:56.264Z,21.30
2018-05-21T17:58:24.435Z,21.20
2018-05-21T18:00:52.620Z,21.10
2018-05-21T18:03:21.554Z,20.90
2018-05-21T18:05:50.145Z,20.90
2018-05-21T18:08:18.345Z,20.90
2018-05-21T18:10:46.422Z,20.80
2018-05-21T18:13:14.706Z,20.80
2018-05-21T18:15:43.050Z,20.70
2018-05-21T18:18:11.459Z,20.80
2018-05-21T18:20:39.584Z,20.70
2018-05-21T18:23:08.006Z,20.70
2018-05-21T18:25:36.180Z,20.50
2018-05-21T18:28:04.866Z,20.40
2018-05-21T18:30:32.942Z,20.40
2018-05-21T18:33:01.324Z,20.30
2018-05-21T18:35:29.644Z,20.20
2018-05-21T18:37:57.861Z,20.10
2018-05-21T18:40:26.182Z,19.90
2018-05-21T18:42:55.337Z,19.90
2018-05-21T18:45:23.598Z,19.80
2018-05-21T18:47:51.956Z,19.80
2018-05-21T18:50:20.167Z,19.60
2018-05-21T18:52:48.633Z,19.50
2018-05-21T18:55:21.842Z,19.40
2018-05-21T18:57:50.869Z,19.20
2018-05-21T19:02:57.003Z,19.00
2018-05-21T19:05:25.385Z,19.00
2018-05-21T19:07:58.844Z,18.90
2018-05-21T19:13:01.676Z,18.90
2018-05-21T19:15:29.834Z,18.70
2018-05-21T19:17:58.273Z,18.60
2018-05-21T19:20:27.546Z,18.50
2018-05-21T19:22:56.754Z,18.50
2018-05-21T19:25:25.915Z,18.50
2018-05-21T19:27:57.402Z,18.40
2018-05-21T19:30:26.153Z,18.30
2018-05-21T19:32:57.882Z,18.20
2018-05-21T19:35:32.955Z,18.10
2018-05-21T19:38:01.344Z,18.00
2018-05-21T19:40:29.513Z,18.00
2018-05-21T19:43:00.937Z,18.00
2018-05-21T19:45:28.921Z,18.00
2018-05-21T19:47:57.667Z,18.00
2018-05-21T19:50:26.794Z,18.00
2018-05-21T19:56:03.504Z,17.80
2018-05-21T19:58:35.017Z,17.70
2018-05-21T20:01:07.081Z,17.70
2018-05-21T20:03:38.828Z,17.60
2018-05-21T20:06:11.225Z,17.50
2018-05-21T20:24:59.758Z,17.50
2018-05-21T20:27:27.866Z,16.50
2018-05-21T20:29:56.137Z,16.50
2018-05-21T20:32:24.321Z,16.60
2018-05-21T20:34:52.185Z,16.60
2018-05-21T20:37:20.699Z,16.70
2018-05-21T20:39:49.658Z,16.60
2018-05-21T20:42:17.865Z,16.60
2018-05-21T20:44:46.875Z,16.60
2018-05-21T20:47:15.825Z,16.60
2018-05-21T20:49:43.984Z,16.60
2018-05-21T20:52:12.059Z,16.50
2018-05-21T20:54:40.368Z,16.40
2018-05-21T20:57:09.303Z,16.40
2018-05-21T20:59:37.662Z,16.40
2018-05-21T21:02:06.089Z,16.40
2018-05-21T21:04:34.074Z,16.40
2018-05-21T21:07:02.241Z,16.40
2018-05-21T21:09:30.607Z,16.40
2018-05-21T21:11:59.200Z,16.30
2018-05-21T21:14:27.475Z,16.30
2018-05-21T21:16:55.953Z,16.30
2018-05-21T21:19:24.221Z,16.20
2018-05-21T21:21:52.663Z,16.10
2018-05-21T21:24:21.277Z,16.10
2018-05-21T21:26:49.858Z,16.00
2018-05-21T21:29:18.209Z,16.00
2018-05-21T21:31:46.320Z,16.00
2018-05-21T21:34:14.403Z,15.90
2018-05-21T21:36:42.768Z,15.80
2018-05-21T21:39:10.670Z,15.80
2018-05-21T21:41:40.044Z,15.80
2018-05-21T21:44:08.007Z,15.80
2018-05-21T21:46:36.338Z,15.70
2018-05-21T21:49:04.915Z,15.70
2018-05-21T21:51:33.238Z,15.60
2018-05-21T21:54:01.516Z,15.60
2018-05-21T21:56:29.588Z,15.50
2018-05-21T21:58:57.997Z,15.50
2018-05-21T22:01:26.960Z,15.40
2018-05-21T22:03:55.171Z,15.30
2018-05-21T22:06:24.942Z,15.20
2018-05-21T22:08:53.148Z,15.10
2018-05-21T22:11:22.548Z,15.00
2018-05-21T22:13:51.215Z,14.90
2018-05-21T22:16:19.433Z,14.90
2018-05-21T22:18:47.767Z,14.90
2018-05-21T22:21:15.932Z,14.90
2018-05-21T22:23:44.705Z,14.90
2018-05-21T22:26:13.045Z,14.80
2018-05-21T22:28:41.263Z,14.80
2018-05-21T22:31:09.331Z,14.70
2018-05-21T22:33:37.092Z,14.70
2018-05-21T22:36:05.306Z,14.60
2018-05-21T22:38:34.737Z,14.60
2018-05-21T22:41:03.052Z,14.60
2018-05-21T22:43:31.532Z,14.50
2018-05-21T22:45:59.405Z,14.50
2018-05-21T22:48:27.775Z,14.50
2018-05-21T22:50:56.061Z,14.40
2018-05-21T22:53:24.222Z,14.40
2018-05-21T22:55:52.465Z,14.40
2018-05-21T22:58:20.519Z,14.30
2018-05-21T23:00:49.972Z,14.30
2018-05-21T23:03:18.254Z,14.10
2018-05-21T23:05:46.131Z,14.10
2018-05-21T23:08:14.502Z,14.10
2018-05-21T23:10:42.924Z,14.00
2018-05-21T23:13:11.126Z,14.00
2018-05-21T23:15:39.218Z,14.00
2018-05-21T23:18:07.181Z,13.90
2018-05-21T23:20:35.389Z,13.90
2018-05-21T23:23:05.372Z,13.80
2018-05-21T23:25:33.332Z,13.80
2018-05-21T23:28:01.395Z,13.80
2018-05-21T23:30:29.395Z,13.80
2018-05-21T23:32:57.804Z,13.70
2018-05-21T23:35:26.757Z,13.70
2018-05-21T23:37:54.839Z,13.60
2018-05-21T23:40:22.691Z,13.60
2018-05-21T23:42:50.777Z,13.50
2018-05-21T23:45:18.945Z,13.50
2018-05-21T23:47:47.024Z,13.50
2018-05-21T23:50:15.109Z,13.40
2018-05-21T23:52:43.785Z,13.40
2018-05-21T23:55:12.210Z,13.40
2018-05-21T23:57:40.003Z,13.40
